Sylvia — PEAX — position and weather

sailwx.info

Track history (hours):
 
Tides and Currents Weather Stations Pressure Air Temp Water Temp Dewpoint Dewpoint Depression Visibility Wind Speed Wind Dir Waves Ship Positions

Sylvia

Last reported at 2014-May-15 17:19 UTC. Time now 2014-Oct-24 16:55 UTC.
Position N 52°25' E 004°46'.
Warning: this ship's position is months out of date.

Length 108 m; draft 5 m.

Type: Ship. MMSI: 245752000.

Date/timePositionNaut miles runAvg speedWind from/ knotsBaromVisibWave heightAir tempDewpointWater temp
2014-May-15 17:19N 52°25' E 004°46'0 0.0
2014-May-15 16:31N 52°25' E 004°46'0 0.0
2014-May-15 15:31N 52°25' E 004°46'0 0.0
2014-May-15 14:31N 52°25' E 004°46'0 0.0
2014-May-15 13:31N 52°25' E 004°46'0 0.0
2014-May-15 12:31N 52°25' E 004°46'0 0.0
2014-May-15 11:31N 52°25' E 004°46'0 0.0
2014-May-15 10:31N 52°25' E 004°46'0 0.0
2014-May-15 09:31N 52°25' E 004°46'0 0.0
2014-May-15 08:31N 52°25' E 004°46'0 0.0
2014-May-15 07:31N 52°25' E 004°46'0 0.0
2014-May-15 06:31N 52°25' E 004°46'0 0.0
2014-May-15 05:31N 52°25' E 004°46'0 0.0
2014-May-15 04:31N 52°25' E 004°46'0 0.0
2014-May-15 03:31N 52°25' E 004°46'0 0.0
2014-May-15 02:31N 52°25' E 004°46'0 0.0
2014-May-15 01:31N 52°25' E 004°46'0 0.0
2014-May-15 00:31N 52°25' E 004°46'0 0.0
2014-May-14 23:31N 52°25' E 004°46'0 0.0
2014-May-14 22:31N 52°25' E 004°46'0 0.0
2014-May-14 21:31N 52°25' E 004°46'0 0.0
2014-May-14 20:31N 52°25' E 004°46'0 0.0
2014-May-14 19:31N 52°25' E 004°46'0 0.0
2014-May-14 18:31N 52°25' E 004°46'0 0.0
2014-May-14 15:31N 52°25' E 004°46'0 0.0
2014-May-14 14:31N 52°25' E 004°46'0 0.0
2014-May-14 12:31N 52°25' E 004°46'0 0.1
2014-May-14 11:34N 52°25' E 004°46'7 6.9
2014-May-14 10:34N 52°28' E 004°37'5 5.3
2014-May-14 09:33N 52°28' E 004°28'10 9.8
2014-May-14 08:34N 52°29' E 004°12'1010.1
2014-May-14 07:33N 52°27' E 003°56'6510.3
2014-May-14 01:16N 51°44' E 002°36'811.4
2014-May-14 00:32N 51°38' E 002°28'1111.4
2014-May-13 23:33N 51°28' E 002°18'1511.2
2014-May-13 22:11N 51°16' E 002°05'711.1
2014-May-13 21:32N 51°10' E 001°56'9 9.5
2014-May-13 20:33N 51°04' E 001°45'8 8.2
2014-May-13 19:33N 50°58' E 001°36'21 6.9
2014-May-13 16:33N 50°42' E 001°17'16 8.1
2014-May-13 14:32N 50°31' E 000°57'9 8.8
2014-May-13 13:33N 50°28' E 000°44'9 8.8
2014-May-13 12:33N 50°27' E 000°31'6410.6
2014-May-13 06:31N 50°07' W 001°05'  
2014-May-07 04:33N 46°01' W 001°50'8 8.2
2014-May-07 03:33N 46°08' W 001°58'8 8.2
2014-May-07 02:32N 46°14' W 002°05'8 8.4
2014-May-07 01:33N 46°21' W 002°12'8 8.4
2014-May-07 00:33N 46°28' W 002°19'51 2.1
2014-May-06 00:16N 47°18' W 002°07'0 0.0
2014-May-05 23:31N 47°18' W 002°07'0 0.0
2014-May-05 22:22N 47°18' W 002°07'  
Track history (hours):
 
Tides and Currents Weather Stations Pressure Air Temp Water Temp Dewpoint Dewpoint Depression Visibility Wind Speed Wind Dir Waves Ship Positions

Sylvia

Last reported at 2014-May-15 17:19 UTC. Time now 2014-Oct-24 16:55 UTC.
Position N 52°25' E 004°46'.
Warning: this ship's position is months out of date.

Length 108 m; draft 5 m.

Type: Ship. MMSI: 245752000.

Date/timePositionNaut miles runAvg speedWind from/ knotsBaromVisibWave heightAir tempDewpointWater temp
2014-May-15 17:19N 52°25' E 004°46'0 0.0
2014-May-15 16:31N 52°25' E 004°46'0 0.0
2014-May-15 15:31N 52°25' E 004°46'0 0.0
2014-May-15 14:31N 52°25' E 004°46'0 0.0
2014-May-15 13:31N 52°25' E 004°46'0 0.0
2014-May-15 12:31N 52°25' E 004°46'0 0.0
2014-May-15 11:31N 52°25' E 004°46'0 0.0
2014-May-15 10:31N 52°25' E 004°46'0 0.0
2014-May-15 09:31N 52°25' E 004°46'0 0.0
2014-May-15 08:31N 52°25' E 004°46'0 0.0
2014-May-15 07:31N 52°25' E 004°46'0 0.0
2014-May-15 06:31N 52°25' E 004°46'0 0.0
2014-May-15 05:31N 52°25' E 004°46'0 0.0
2014-May-15 04:31N 52°25' E 004°46'0 0.0
2014-May-15 03:31N 52°25' E 004°46'0 0.0
2014-May-15 02:31N 52°25' E 004°46'0 0.0
2014-May-15 01:31N 52°25' E 004°46'0 0.0
2014-May-15 00:31N 52°25' E 004°46'0 0.0
2014-May-14 23:31N 52°25' E 004°46'0 0.0
2014-May-14 22:31N 52°25' E 004°46'0 0.0
2014-May-14 21:31N 52°25' E 004°46'0 0.0
2014-May-14 20:31N 52°25' E 004°46'0 0.0
2014-May-14 19:31N 52°25' E 004°46'0 0.0
2014-May-14 18:31N 52°25' E 004°46'0 0.0
2014-May-14 15:31N 52°25' E 004°46'0 0.0
2014-May-14 14:31N 52°25' E 004°46'0 0.0
2014-May-14 12:31N 52°25' E 004°46'0 0.1
2014-May-14 11:34N 52°25' E 004°46'7 6.9
2014-May-14 10:34N 52°28' E 004°37'5 5.3
2014-May-14 09:33N 52°28' E 004°28'10 9.8
2014-May-14 08:34N 52°29' E 004°12'1010.1
2014-May-14 07:33N 52°27' E 003°56'6510.3
2014-May-14 01:16N 51°44' E 002°36'811.4
2014-May-14 00:32N 51°38' E 002°28'1111.4
2014-May-13 23:33N 51°28' E 002°18'1511.2
2014-May-13 22:11N 51°16' E 002°05'711.1
2014-May-13 21:32N 51°10' E 001°56'9 9.5
2014-May-13 20:33N 51°04' E 001°45'8 8.2
2014-May-13 19:33N 50°58' E 001°36'21 6.9
2014-May-13 16:33N 50°42' E 001°17'16 8.1
2014-May-13 14:32N 50°31' E 000°57'9 8.8
2014-May-13 13:33N 50°28' E 000°44'9 8.8
2014-May-13 12:33N 50°27' E 000°31'6410.6
2014-May-13 06:31N 50°07' W 001°05'  
2014-May-07 04:33N 46°01' W 001°50'8 8.2
2014-May-07 03:33N 46°08' W 001°58'8 8.2
2014-May-07 02:32N 46°14' W 002°05'8 8.4
2014-May-07 01:33N 46°21' W 002°12'8 8.4
2014-May-07 00:33N 46°28' W 002°19'51 2.1
2014-May-06 00:16N 47°18' W 002°07'0 0.0
2014-May-05 23:31N 47°18' W 002°07'0 0.0
2014-May-05 22:22N 47°18' W 002°07'  

Dump ship's entire track history